Time;durP1;ratioP1;P1;durP2;ratioP2;P2;SDS_P1;SDS_P2;PMS_P1;PMS_P2;Temp;Humidity;BMP_temperature;BMP_pressure;BME280_temperature;BME280_humidity;BME280_pressure;Samples;Min_cycle;Max_cycle;Signal;HPM_P1;HPM_P2
2023/06/16 00:01:31;;;;;;;15.07;13.23;;;;;;;18.56;100.00;94127.53;5106284;28;20188;-46
2023/06/16 00:03:58;;;;;;;14.63;12.90;;;;;;;18.56;100.00;94129.34;5093239;28;20193;-47
2023/06/16 00:06:29;;;;;;;14.83;13.37;;;;;;;18.54;100.00;94128.75;5106627;28;20224;-45
2023/06/16 00:08:57;;;;;;;17.37;13.03;;;;;;;18.46;100.00;94116.00;5107005;28;20181;-46
2023/06/16 00:11:26;;;;;;;14.87;13.37;;;;;;;18.56;100.00;94124.16;5107180;28;20189;-43
2023/06/16 00:13:52;;;;;;;15.83;13.63;;;;;;;18.20;100.00;94070.22;5106882;28;20213;-47
2023/06/16 00:16:19;;;;;;;16.17;14.37;;;;;;;18.56;100.00;94131.94;5106097;28;20192;-47
2023/06/16 00:18:51;;;;;;;15.97;14.27;;;;;;;18.58;100.00;94126.56;5106020;28;20189;-48
2023/06/16 00:21:25;;;;;;;15.70;13.97;;;;;;;18.59;100.00;94121.19;5106505;28;20189;-47
2023/06/16 00:23:52;;;;;;;16.40;14.00;;;;;;;18.59;100.00;94125.56;5106228;28;20193;-46
2023/06/16 00:26:19;;;;;;;16.77;14.43;;;;;;;18.55;100.00;94118.19;5105977;28;20552;-46
2023/06/16 00:28:46;;;;;;;15.30;13.40;;;;;;;18.56;100.00;94127.53;5106014;28;20200;-47
2023/06/16 00:31:12;;;;;;;15.93;14.33;;;;;;;18.54;100.00;94123.59;5106186;28;20207;-47
2023/06/16 00:33:39;;;;;;;17.27;15.47;;;;;;;18.55;100.00;94120.78;5105521;28;20560;-48
2023/06/16 00:36:10;;;;;;;16.17;14.57;;;;;;;18.58;100.00;94116.22;5110841;28;20664;-46
2023/06/16 00:38:36;;;;;;;18.27;14.97;;;;;;;18.59;100.00;94118.59;5093954;28;20197;-48
2023/06/16 00:41:03;;;;;;;18.67;14.80;;;;;;;18.61;100.00;94123.56;5095978;28;20200;-44
2023/06/16 00:43:30;;;;;;;16.53;14.53;;;;;;;18.65;100.00;94117.81;5093537;28;20198;-47
2023/06/16 00:45:57;;;;;;;15.37;13.87;;;;;;;18.60;100.00;94104.63;5091983;28;20209;-46
2023/06/16 00:48:24;;;;;;;15.30;13.70;;;;;;;18.44;100.00;94081.78;5092087;28;20182;-46
2023/06/16 00:50:51;;;;;;;16.43;14.50;;;;;;;18.70;100.00;94109.47;5092096;28;20254;-45
2023/06/16 00:53:20;;;;;;;16.70;14.83;;;;;;;18.69;100.00;94108.63;5092442;28;20216;-46
2023/06/16 00:55:47;;;;;;;17.93;14.83;;;;;;;18.69;100.00;94103.47;5091503;28;20182;-46
2023/06/16 00:58:14;;;;;;;16.70;15.00;;;;;;;18.68;100.00;94101.84;5092129;28;20217;-44
2023/06/16 01:00:41;;;;;;;19.37;14.07;;;;;;;18.71;100.00;94093.72;5091763;28;20189;-47
2023/06/16 01:03:08;;;;;;;17.00;15.20;;;;;;;18.74;100.00;94095.09;5092168;28;20177;-47
2023/06/16 01:05:36;;;;;;;15.07;13.57;;;;;;;18.74;100.00;94095.09;5092247;28;20300;-44
2023/06/16 01:08:15;;;;;;;16.83;15.17;;;;;;;18.71;100.00;94085.16;5093994;28;20196;-47
2023/06/16 01:10:51;;;;;;;16.03;14.37;;;;;;;18.71;100.00;94080.75;5091626;28;20639;-45
2023/06/16 01:13:25;;;;;;;20.60;14.87;;;;;;;18.73;100.00;94091.69;5092042;28;20207;-47
2023/06/16 01:15:53;;;;;;;19.17;14.63;;;;;;;18.71;100.00;94085.16;5091313;28;20238;-48
2023/06/16 01:18:22;;;;;;;17.47;14.90;;;;;;;18.75;100.00;94081.94;5091596;28;20209;-47
2023/06/16 01:20:55;;;;;;;20.03;15.37;;;;;;;18.74;100.00;94084.75;5091606;28;20232;-45
2023/06/16 01:23:33;;;;;;;17.07;14.30;;;;;;;18.73;100.00;94076.16;5091751;28;20204;-45
2023/06/16 01:26:03;;;;;;;18.17;15.27;;;;;;;18.61;100.00;94056.22;5091270;28;20237;-46
2023/06/16 01:28:32;;;;;;;17.37;15.57;;;;;;;18.67;100.00;94058.81;5090946;28;20189;-46
2023/06/16 01:31:01;;;;;;;17.70;15.23;;;;;;;18.79;100.00;94071.97;5091600;28;20189;-46
2023/06/16 01:33:32;;;;;;;21.25;16.30;;;;;;;18.75;100.00;94066.41;5091132;28;20368;-47
2023/06/16 01:36:01;;;;;;;18.20;16.33;;;;;;;18.73;100.00;94070.97;5090989;28;20201;-47
2023/06/16 01:38:30;;;;;;;18.83;16.23;;;;;;;18.72;100.00;94073.78;5091414;28;20184;-47
2023/06/16 01:40:58;;;;;;;18.77;16.07;;;;;;;18.73;100.00;94065.78;5091033;28;20722;-46
2023/06/16 01:43:27;;;;;;;16.43;14.57;;;;;;;18.64;100.00;94055.81;5090881;28;20186;-46
2023/06/16 01:45:54;;;;;;;15.80;14.20;;;;;;;18.72;100.00;94071.19;5091155;28;20229;-46
2023/06/16 01:48:22;;;;;;;16.70;14.30;;;;;;;18.72;100.00;94060.81;5090145;28;20621;-46
2023/06/16 01:50:49;;;;;;;18.30;14.23;;;;;;;18.77;100.00;94066.19;5090870;28;20190;-47
2023/06/16 01:53:16;;;;;;;18.10;15.00;;;;;;;18.79;100.00;94067.59;5090673;28;20190;-46
2023/06/16 01:55:47;;;;;;;21.00;16.43;;;;;;;18.81;100.00;94067.38;5090543;28;20208;-45
2023/06/16 01:58:15;;;;;;;17.33;15.47;;;;;;;18.78;100.00;94062.59;5091015;28;20211;-47
2023/06/16 02:00:50;;;;;;;16.60;13.90;;;;;;;18.75;100.00;94063.81;5090657;28;20190;-46
2023/06/16 02:03:23;;;;;;;20.60;15.50;;;;;;;18.73;100.00;94060.63;5090852;28;20628;-45
2023/06/16 02:05:52;;;;;;;16.77;15.07;;;;;;;18.76;100.00;94065.41;5090557;28;20573;-47
2023/06/16 02:08:24;;;;;;;18.57;16.37;;;;;;;18.76;100.00;94060.22;5090641;28;20192;-44
2023/06/16 02:10:52;;;;;;;20.43;16.43;;;;;;;18.76;100.00;94065.41;5090189;28;20186;-45
2023/06/16 02:13:19;;;;;;;17.43;15.53;;;;;;;18.76;100.00;94067.19;5090775;28;20193;-46
2023/06/16 02:15:47;;;;;;;20.13;16.07;;;;;;;18.74;100.00;94067.41;5090449;28;20209;-45
2023/06/16 02:18:15;;;;;;;16.47;13.37;;;;;;;18.74;100.00;94067.41;5090496;28;20614;-47
2023/06/16 02:20:41;;;;;;;16.13;14.53;;;;;;;18.73;100.00;94059.81;5090347;28;20629;-47
2023/06/16 02:23:08;;;;;;;15.33;13.63;;;;;;;18.73;100.00;94067.59;5090898;28;20633;-47
2023/06/16 02:25:35;;;;;;;15.40;13.87;;;;;;;18.70;100.00;94065.44;5090631;28;20225;-46
2023/06/16 02:28:02;;;;;;;15.73;14.10;;;;;;;18.71;100.00;94070.41;5089966;28;20189;-46
2023/06/16 02:30:28;;;;;;;15.57;13.43;;;;;;;18.70;100.00;94068.03;5090232;28;20186;-46
2023/06/16 02:32:58;;;;;;;16.50;14.03;;;;;;;18.72;100.00;94073.78;5090073;28;20189;-47
2023/06/16 02:35:25;;;;;;;16.37;13.03;;;;;;;18.72;100.00;94068.59;5094558;28;20177;-45
2023/06/16 02:37:53;;;;;;;16.20;13.17;;;;;;;18.73;100.00;94065.00;5092395;28;20193;-47
2023/06/16 02:40:20;;;;;;;16.93;14.13;;;;;;;18.57;100.00;94048.09;5090772;28;20656;-45
2023/06/16 02:42:48;;;;;;;17.27;14.20;;;;;;;18.68;100.00;94065.59;5089463;28;20190;-46
2023/06/16 02:45:15;;;;;;;16.80;14.60;;;;;;;18.75;100.00;94070.78;5089886;28;20296;-44
2023/06/16 02:47:41;;;;;;;15.70;14.10;;;;;;;18.66;100.00;94051.25;5089615;28;20210;-46
2023/06/16 02:50:11;;;;;;;17.90;14.60;;;;;;;18.77;100.00;94069.56;5090188;28;20185;-47
2023/06/16 02:52:41;;;;;;;19.40;15.03;;;;;;;18.68;100.00;94051.84;5090079;28;20190;-47
2023/06/16 02:55:09;;;;;;;18.33;15.07;;;;;;;18.77;100.00;94059.22;5090129;28;20190;-46
2023/06/16 02:57:36;;;;;;;18.50;15.27;;;;;;;18.81;100.00;94059.59;5089728;28;20721;-44
2023/06/16 03:00:05;;;;;;;17.40;15.53;;;;;;;18.82;100.00;94056.00;5089764;28;20193;-48
2023/06/16 03:02:31;;;;;;;18.00;15.10;;;;;;;18.83;100.00;94064.59;5089674;28;20189;-46
2023/06/16 03:04:58;;;;;;;22.03;15.03;;;;;;;18.82;100.00;94066.38;5090253;28;20630;-45
2023/06/16 03:07:31;;;;;;;16.80;15.00;;;;;;;18.78;100.00;94053.06;5089733;28;20727;-46
2023/06/16 03:09:59;;;;;;;18.42;15.90;;;;;;;18.83;100.00;94060.22;5089583;28;20197;-46
2023/06/16 03:12:26;;;;;;;20.53;16.70;;;;;;;18.74;100.00;94051.06;5089722;28;20251;-45
2023/06/16 03:14:53;;;;;;;21.10;16.30;;;;;;;18.79;100.00;94059.03;5089343;28;20205;-47
2023/06/16 03:17:20;;;;;;;19.67;16.10;;;;;;;18.77;100.00;94058.41;5089553;28;20193;-47
2023/06/16 03:19:47;;;;;;;18.97;16.03;;;;;;;18.82;100.00;94058.59;5089987;28;20190;-46
2023/06/16 03:22:14;;;;;;;19.63;15.53;;;;;;;18.84;100.00;94059.19;5089580;28;20198;-46
2023/06/16 03:24:43;;;;;;;17.43;14.67;;;;;;;18.85;100.00;94060.78;5089198;28;20191;-45
2023/06/16 03:27:10;;;;;;;19.40;15.65;;;;;;;18.85;100.00;94060.00;5089622;28;20255;-46
2023/06/16 03:29:37;;;;;;;18.70;14.97;;;;;;;18.85;100.00;94055.59;5089237;28;20190;-45
2023/06/16 03:32:05;;;;;;;16.63;14.83;;;;;;;18.87;100.00;94055.41;5089705;28;20217;-48
2023/06/16 03:34:32;;;;;;;16.33;13.93;;;;;;;18.84;100.00;94055.81;5089553;28;20190;-46
2023/06/16 03:36:59;;;;;;;17.30;13.47;;;;;;;18.83;100.00;94052.44;5089380;28;20193;-46
2023/06/16 03:39:26;;;;;;;19.67;15.57;;;;;;;18.70;100.00;94026.56;5089206;28;20675;-46
2023/06/16 03:41:54;;;;;;;17.57;15.37;;;;;;;18.85;100.00;94055.59;5089039;28;20189;-44
2023/06/16 03:44:21;;;;;;;17.83;14.43;;;;;;;18.85;100.00;94045.25;5089417;28;20200;-47
2023/06/16 03:46:48;;;;;;;15.85;13.77;;;;;;;18.85;100.00;94044.44;5089321;28;20221;-46
2023/06/16 03:49:15;;;;;;;14.73;12.13;;;;;;;18.85;100.00;94037.47;5089752;28;20178;-44
2023/06/16 03:51:42;;;;;;;15.10;13.50;;;;;;;18.83;100.00;94036.91;5089094;28;20201;-44
2023/06/16 03:54:09;;;;;;;17.13;13.70;;;;;;;18.86;100.00;94040.84;5089845;28;20220;-45
2023/06/16 03:56:36;;;;;;;13.80;11.90;;;;;;;18.88;100.00;94037.06;5089277;28;20657;-47
2023/06/16 03:59:04;;;;;;;14.77;12.67;;;;;;;18.92;100.00;94035.66;5090353;28;20190;-45
2023/06/16 04:01:31;;;;;;;14.57;11.90;;;;;;;18.96;100.00;94028.28;5088548;28;20652;-46
2023/06/16 04:03:58;;;;;;;14.82;13.25;;;;;;;18.97;100.00;94035.84;5089538;28;20193;-46
2023/06/16 04:06:25;;;;;;;14.47;12.83;;;;;;;18.97;100.00;94040.22;5089081;28;20232;-45
2023/06/16 04:08:52;;;;;;;15.73;13.07;;;;;;;18.97;100.00;94033.25;5089306;28;20193;-46
2023/06/16 04:11:19;;;;;;;19.60;12.87;;;;;;;18.97;100.00;94033.25;5088954;28;20277;-46
2023/06/16 04:13:46;;;;;;;17.10;13.30;;;;;;;18.97;100.00;94027.28;5092886;28;20194;-49
2023/06/16 04:16:14;;;;;;;14.43;12.83;;;;;;;18.99;100.00;94033.03;5094532;28;20254;-45
2023/06/16 04:18:41;;;;;;;17.17;13.23;;;;;;;18.99;100.00;94036.41;5093517;28;20185;-45
2023/06/16 04:21:08;;;;;;;16.80;13.47;;;;;;;19.00;100.00;94030.25;5092049;28;20186;-45
2023/06/16 04:23:35;;;;;;;15.13;12.13;;;;;;;19.05;100.00;94037.41;5092739;28;20189;-46
2023/06/16 04:26:02;;;;;;;14.97;13.47;;;;;;;19.07;100.00;94032.81;5092602;28;20221;-46
2023/06/16 04:28:30;;;;;;;16.17;14.47;;;;;;;19.07;100.00;94032.00;5092375;28;20194;-46
2023/06/16 04:30:56;;;;;;;15.27;12.50;;;;;;;19.09;100.00;94024.84;5092756;28;20194;-46
2023/06/16 04:33:25;;;;;;;23.53;15.43;;;;;;;19.11;100.00;94039.16;5094311;28;20182;-49
2023/06/16 04:35:52;;;;;;;16.67;13.77;;;;;;;19.11;100.00;94036.56;5097205;28;20220;-45
2023/06/16 04:38:19;;;;;;;23.65;15.02;;;;;;;19.14;100.00;94028.41;5093183;28;20197;-47
2023/06/16 04:40:47;;;;;;;17.37;13.47;;;;;;;19.14;100.00;94031.00;5092513;28;20195;-45
2023/06/16 04:43:13;;;;;;;18.30;14.93;;;;;;;19.17;100.00;94025.41;5092266;28;20188;-44
2023/06/16 04:45:40;;;;;;;18.73;15.57;;;;;;;19.20;100.00;94026.75;5092413;28;20186;-46
2023/06/16 04:48:07;;;;;;;15.73;14.10;;;;;;;19.19;100.00;94025.19;5091811;28;20696;-46
2023/06/16 04:50:35;;;;;;;19.63;14.90;;;;;;;19.17;100.00;94030.59;5092572;28;20188;-45
2023/06/16 04:53:03;;;;;;;17.45;13.75;;;;;;;19.15;100.00;94031.78;5091912;28;20245;-46
2023/06/16 04:55:30;;;;;;;18.95;13.77;;;;;;;19.16;100.00;94026.38;5091973;28;20193;-45
2023/06/16 04:57:56;;;;;;;16.17;14.13;;;;;;;19.19;100.00;94028.56;5091613;28;20190;-45
2023/06/16 05:00:24;;;;;;;15.75;12.95;;;;;;;19.20;100.00;94024.16;5085893;28;20197;-46
2023/06/16 05:02:51;;;;;;;16.77;13.17;;;;;;;19.21;100.00;94031.75;5089590;28;20201;-46
2023/06/16 05:05:17;;;;;;;15.77;13.33;;;;;;;19.25;100.00;94037.31;5089386;28;20185;-48
2023/06/16 05:07:46;;;;;;;14.13;12.70;;;;;;;19.22;100.00;94035.16;5089250;28;20719;-46
2023/06/16 05:10:13;;;;;;;14.57;12.30;;;;;;;19.22;100.00;94042.91;5089091;28;20640;-45
2023/06/16 05:12:40;;;;;;;16.37;12.53;;;;;;;19.24;100.00;94038.31;5089206;28;20239;-46
2023/06/16 05:15:08;;;;;;;13.52;12.13;;;;;;;19.25;100.00;94038.09;5089336;28;20193;-44
2023/06/16 05:17:36;;;;;;;12.40;11.20;;;;;;;19.23;100.00;94040.13;5089242;28;20178;-45
2023/06/16 05:20:03;;;;;;;11.80;10.70;;;;;;;19.26;100.00;94041.50;5089100;28;20651;-45
2023/06/16 05:22:30;;;;;;;13.87;12.00;;;;;;;18.95;100.00;93993.78;5089133;28;20194;-46
2023/06/16 05:24:58;;;;;;;16.73;11.90;;;;;;;19.04;100.00;94013.28;5088499;28;20252;-46
2023/06/16 05:27:26;;;;;;;14.90;10.23;;;;;;;19.25;100.00;94042.50;5089090;28;20233;-46
2023/06/16 05:29:53;;;;;;;11.95;10.70;;;;;;;19.30;100.00;94043.47;5088596;28;20193;-46
2023/06/16 05:32:21;;;;;;;11.13;9.30;;;;;;;19.43;100.00;94037.44;5089404;28;20236;-45
2023/06/16 05:34:48;;;;;;;14.53;10.33;;;;;;;19.52;100.00;94036.19;5088692;28;20234;-45
2023/06/16 05:37:16;;;;;;;10.48;9.52;;;;;;;19.66;100.00;94036.91;5089557;28;20193;-46
2023/06/16 05:39:43;;;;;;;13.57;10.90;;;;;;;19.78;100.00;94037.03;5090369;28;20239;-47
2023/06/16 05:42:13;;;;;;;15.15;11.20;;;;;;;19.80;100.00;94048.00;5092962;28;20261;-46
2023/06/16 05:44:40;;;;;;;10.93;9.70;;;;;;;19.84;100.00;94046.56;5088876;28;20185;-45
2023/06/16 05:47:08;;;;;;;14.68;10.27;;;;;;;19.89;100.00;94038.94;5075552;28;20300;-47
2023/06/16 05:49:35;;;;;;;12.80;10.40;;;;;;;19.94;100.00;94039.09;5071179;28;20187;-44
2023/06/16 05:52:04;;;;;;;10.48;9.40;;;;;;;20.00;100.00;94040.88;5079127;28;20200;-47
2023/06/16 05:54:31;;;;;;;10.98;9.65;;;;;;;20.04;100.00;94047.22;5090641;28;20198;-47
2023/06/16 05:56:58;;;;;;;10.98;9.70;;;;;;;20.14;100.00;94045.94;5090660;28;20190;-47
2023/06/16 05:59:27;;;;;;;11.93;9.65;;;;;;;20.20;100.00;94047.69;5090497;28;20181;-48
2023/06/16 06:01:54;;;;;;;9.40;8.50;;;;;;;20.26;100.00;94045.03;5080440;28;20199;-46
2023/06/16 06:04:22;;;;;;;15.38;9.30;;;;;;;20.15;100.00;94021.56;5088297;28;20193;-46
2023/06/16 06:06:49;;;;;;;10.82;9.63;;;;;;;20.37;100.00;94048.75;5086039;28;20236;-47
2023/06/16 06:09:16;;;;;;;10.73;9.48;;;;;;;20.43;100.00;94047.09;5089308;28;20284;-45
2023/06/16 06:11:43;;;;;;;10.27;9.27;;;;;;;20.47;100.00;94043.06;5090219;28;20216;-46
2023/06/16 06:14:11;;;;;;;11.50;10.30;;;;;;;20.78;100.00;94055.97;5085674;28;20208;-44
2023/06/16 06:16:39;;;;;;;12.00;9.32;;;;;;;21.10;100.00;94053.22;5089782;28;20190;-46
2023/06/16 06:19:06;;;;;;;12.55;10.20;;;;;;;21.50;100.00;94056.16;5089928;28;20243;-44
2023/06/16 06:21:33;;;;;;;11.07;10.18;;;;;;;21.87;100.00;94060.44;5089270;28;20231;-48
2023/06/16 06:24:00;;;;;;;10.35;9.25;;;;;;;22.14;99.05;94046.03;5089334;28;20198;-45
2023/06/16 06:26:27;;;;;;;10.93;9.80;;;;;;;22.28;97.64;94057.06;5089303;28;20251;-46
2023/06/16 06:28:54;;;;;;;12.80;9.75;;;;;;;22.30;94.60;94062.81;5088253;28;20218;-45
2023/06/16 06:31:21;;;;;;;9.73;8.40;;;;;;;22.17;95.83;94057.81;5089824;28;20190;-47
2023/06/16 06:33:49;;;;;;;9.85;8.88;;;;;;;22.12;95.80;94052.47;5089328;28;20202;-46
2023/06/16 06:36:22;;;;;;;10.18;9.25;;;;;;;22.03;95.94;94049.41;5089241;28;20556;-47
2023/06/16 06:38:48;;;;;;;10.70;9.23;;;;;;;21.97;96.70;94040.66;5090424;28;20193;-46
2023/06/16 06:41:16;;;;;;;11.38;9.18;;;;;;;21.99;97.00;94038.63;5090173;28;20190;-47
2023/06/16 06:43:43;;;;;;;10.45;9.35;;;;;;;22.02;96.96;94050.38;5089090;28;20225;-47
2023/06/16 06:46:09;;;;;;;9.80;8.80;;;;;;;22.06;96.94;94043.72;5089096;28;20664;-45
2023/06/16 06:48:36;;;;;;;9.80;8.80;;;;;;;22.11;97.08;94045.69;5088104;28;20224;-47
2023/06/16 06:51:05;;;;;;;10.27;9.27;;;;;;;21.99;97.11;94035.22;5086526;28;20198;-46
2023/06/16 06:53:32;;;;;;;12.63;8.95;;;;;;;22.06;96.87;94033.31;5085671;28;20573;-47
2023/06/16 06:55:59;;;;;;;9.60;7.90;;;;;;;22.27;96.87;94032.78;5086804;28;20277;-47
2023/06/16 06:58:26;;;;;;;9.27;7.95;;;;;;;22.59;96.33;94031.66;5086624;28;20193;-44
2023/06/16 07:00:53;;;;;;;9.60;8.45;;;;;;;22.86;94.62;94035.38;5086918;28;20577;-46
2023/06/16 07:03:20;;;;;;;9.13;7.63;;;;;;;23.15;92.53;94036.25;5086548;28;20726;-45
2023/06/16 07:05:46;;;;;;;9.63;8.23;;;;;;;23.36;91.34;94031.38;5086277;28;20869;-47
2023/06/16 07:08:15;;;;;;;9.38;8.48;;;;;;;23.48;88.92;94032.16;5085992;28;20217;-45
2023/06/16 07:10:41;;;;;;;9.77;8.32;;;;;;;23.37;89.26;94038.22;5086300;28;20190;-46
2023/06/16 07:13:08;;;;;;;7.60;6.90;;;;;;;23.33;89.50;94034.47;5086362;28;20196;-46
2023/06/16 07:15:35;;;;;;;13.80;8.30;;;;;;;23.25;89.25;94039.03;5086437;28;20280;-46
2023/06/16 07:18:02;;;;;;;9.73;8.07;;;;;;;23.18;89.37;94037.59;5086574;28;20585;-44
2023/06/16 07:20:29;;;;;;;7.63;6.93;;;;;;;23.06;88.65;94032.41;5084039;28;20189;-45
2023/06/16 07:22:55;;;;;;;8.60;6.97;;;;;;;22.91;89.02;94029.50;5086342;28;20209;-46
2023/06/16 07:25:24;;;;;;;7.85;6.75;;;;;;;22.98;89.15;94035.38;5085946;28;20616;-46
2023/06/16 07:27:50;;;;;;;8.73;7.57;;;;;;;23.09;89.53;94042.38;5086189;28;20206;-46
2023/06/16 07:30:17;;;;;;;8.18;7.38;;;;;;;23.20;88.25;94040.75;5086478;28;20208;-45
2023/06/16 07:32:45;;;;;;;12.63;8.60;;;;;;;23.19;88.28;94041.78;5086123;28;20216;-47
2023/06/16 07:35:12;;;;;;;8.95;8.10;;;;;;;23.17;87.44;94041.22;5086035;28;20204;-44
2023/06/16 07:37:39;;;;;;;9.90;7.60;;;;;;;23.22;86.51;94046.53;5086561;28;20193;-45
2023/06/16 07:40:13;;;;;;;9.75;8.77;;;;;;;23.27;86.34;94047.44;5086437;28;20198;-46
2023/06/16 07:42:42;;;;;;;11.20;9.30;;;;;;;23.27;85.96;94046.63;5085507;28;20173;-47
2023/06/16 07:45:10;;;;;;;9.98;8.98;;;;;;;23.33;85.89;94044.91;5086095;28;20193;-49
2023/06/16 07:47:36;;;;;;;9.73;8.73;;;;;;;23.50;85.14;94059.59;5088220;28;20206;-48
2023/06/16 07:50:04;;;;;;;11.80;9.38;;;;;;;23.51;84.39;94050.75;5092540;28;20189;-44
2023/06/16 07:52:31;;;;;;;9.85;8.82;;;;;;;23.57;82.95;94043.78;5092722;28;20732;-47
2023/06/16 07:54:58;;;;;;;11.15;9.95;;;;;;;23.77;83.03;94046.00;5093450;28;20190;-46
2023/06/16 07:57:25;;;;;;;9.23;8.05;;;;;;;23.95;82.13;94047.59;5092542;28;20256;-47
2023/06/16 07:59:53;;;;;;;9.85;8.82;;;;;;;24.16;81.34;94052.13;5092515;28;20182;-45
2023/06/16 08:02:20;;;;;;;10.25;8.85;;;;;;;24.34;79.64;94051.09;5089902;28;20225;-47
2023/06/16 08:04:47;;;;;;;9.32;8.52;;;;;;;24.35;79.07;94050.06;5089733;28;20190;-46
2023/06/16 08:07:13;;;;;;;10.43;8.52;;;;;;;24.36;77.70;94056.91;5088329;28;20567;-45
2023/06/16 08:09:40;;;;;;;11.32;8.32;;;;;;;24.29;77.64;94058.88;5090185;28;20193;-48
2023/06/16 08:12:09;;;;;;;10.25;9.07;;;;;;;24.18;77.85;94055.31;5088746;28;20885;-46
2023/06/16 08:14:36;;;;;;;10.43;9.43;;;;;;;24.00;76.99;94047.69;5089305;28;20262;-46
2023/06/16 08:17:05;;;;;;;10.02;9.13;;;;;;;23.95;78.19;94052.81;5088698;28;20618;-44
2023/06/16 08:19:32;;;;;;;9.02;8.23;;;;;;;23.89;78.71;94049.34;5089138;28;20243;-45
2023/06/16 08:22:00;;;;;;;10.15;9.20;;;;;;;23.77;79.01;94052.00;5089398;28;20204;-44
2023/06/16 08:24:26;;;;;;;14.00;9.63;;;;;;;23.66;78.81;94057.28;5087869;28;20198;-45
2023/06/16 08:26:53;;;;;;;11.75;9.25;;;;;;;23.68;78.91;94058.66;5085533;28;20287;-44
2023/06/16 08:29:21;;;;;;;13.05;9.52;;;;;;;23.61;79.41;94060.56;5090641;28;20217;-47
2023/06/16 08:31:47;;;;;;;10.80;9.80;;;;;;;23.54;78.87;94068.56;5091226;28;20698;-46
2023/06/16 08:34:15;;;;;;;10.68;9.68;;;;;;;23.37;79.08;94059.88;5091025;28;20194;-46
2023/06/16 08:36:42;;;;;;;14.55;11.27;;;;;;;23.33;79.24;94063.19;5092112;28;20586;-47
2023/06/16 08:39:09;;;;;;;12.07;10.20;;;;;;;23.14;79.36;94031.25;5091932;28;20229;-47
2023/06/16 08:41:38;;;;;;;15.65;11.68;;;;;;;23.33;79.09;94061.38;5091595;28;20192;-45
2023/06/16 08:44:07;;;;;;;12.45;11.20;;;;;;;23.29;78.45;94061.03;5090941;28;20269;-46
2023/06/16 08:46:35;;;;;;;13.85;11.00;;;;;;;23.44;78.08;94055.28;5090745;28;20225;-45
2023/06/16 08:49:02;;;;;;;12.82;11.50;;;;;;;23.58;76.84;94055.03;5090858;28;20206;-44
2023/06/16 08:51:33;;;;;;;11.50;10.15;;;;;;;23.83;76.75;94058.09;5091419;28;20185;-46
2023/06/16 08:54:03;;;;;;;13.35;10.93;;;;;;;24.25;75.25;94055.94;5091272;28;20194;-44
2023/06/16 08:56:32;;;;;;;12.15;10.88;;;;;;;24.71;72.74;94046.19;5090679;28;20178;-45
2023/06/16 08:59:02;;;;;;;15.30;11.38;;;;;;;24.94;71.95;94047.78;5090368;28;20188;-45
2023/06/16 09:01:29;;;;;;;15.73;11.82;;;;;;;25.16;71.59;94044.41;5090999;28;20269;-45
2023/06/16 09:03:56;;;;;;;11.70;10.48;;;;;;;25.14;70.14;94054.34;5090752;28;20216;-45
2023/06/16 09:06:22;;;;;;;13.50;9.93;;;;;;;25.03;69.39;94051.56;5090448;28;20267;-47
2023/06/16 09:08:52;;;;;;;11.02;9.93;;;;;;;24.85;68.43;94062.31;5090347;28;20298;-45
2023/06/16 09:11:23;;;;;;;13.80;11.05;;;;;;;24.73;70.72;94057.19;5089941;28;20276;-44
2023/06/16 09:13:51;;;;;;;11.95;10.35;;;;;;;24.59;70.32;94047.31;5090060;28;20190;-45
2023/06/16 09:16:19;;;;;;;10.45;9.45;;;;;;;24.74;70.69;94055.34;5090086;28;20182;-45
2023/06/16 09:18:47;;;;;;;11.45;10.30;;;;;;;24.56;71.04;94053.78;5090896;28;20576;-46
2023/06/16 09:21:18;;;;;;;10.93;9.85;;;;;;;24.49;71.90;94055.81;5089125;28;20189;-46
2023/06/16 09:23:47;;;;;;;10.90;9.90;;;;;;;24.62;71.46;94036.38;5086641;28;20205;-46
2023/06/16 09:26:15;;;;;;;12.25;9.88;;;;;;;24.65;71.84;94051.56;5088011;28;20217;-45
2023/06/16 09:28:44;;;;;;;11.13;10.13;;;;;;;24.66;71.31;94040.88;5086863;28;20702;-45
2023/06/16 09:31:12;;;;;;;12.05;10.85;;;;;;;24.77;71.24;94049.66;5087467;28;20710;-47
2023/06/16 09:33:39;;;;;;;11.00;10.00;;;;;;;24.89;71.22;94047.72;5087867;28;20208;-46
2023/06/16 09:36:06;;;;;;;11.75;10.57;;;;;;;24.94;71.75;94045.16;5087577;28;20194;-45
2023/06/16 09:38:36;;;;;;;11.57;10.48;;;;;;;25.19;71.35;94041.31;5088099;28;20204;-45
2023/06/16 09:41:10;;;;;;;11.30;10.20;;;;;;;25.09;71.41;94035.97;5088006;28;20640;-45
2023/06/16 09:43:39;;;;;;;13.90;11.90;;;;;;;25.07;71.51;94045.84;5088666;28;20200;-45
2023/06/16 09:46:10;;;;;;;11.38;10.18;;;;;;;25.12;70.69;94040.69;5087850;28;20653;-46
2023/06/16 09:48:46;;;;;;;11.30;10.20;;;;;;;25.01;71.01;94037.94;5087556;28;20301;-45
2023/06/16 09:51:17;;;;;;;11.00;9.93;;;;;;;24.88;71.40;94033.06;5088120;28;20276;-46
2023/06/16 09:53:44;;;;;;;12.90;10.90;;;;;;;24.98;71.62;94033.19;5087678;28;20748;-46
2023/06/16 09:56:13;;;;;;;11.40;10.20;;;;;;;25.07;71.17;94030.16;5085371;28;21065;-45
2023/06/16 09:58:41;;;;;;;11.60;10.40;;;;;;;25.13;71.18;94024.78;5086328;28;20201;-45
2023/06/16 10:01:10;;;;;;;11.55;10.23;;;;;;;25.26;70.47;94032.25;5087002;28;20586;-48
2023/06/16 10:03:39;;;;;;;13.13;10.10;;;;;;;25.28;69.78;94024.94;5087006;28;20190;-47
2023/06/16 10:06:13;;;;;;;11.32;9.60;;;;;;;25.29;69.55;94028.31;5087154;28;20221;-44
2023/06/16 10:08:41;;;;;;;11.02;9.93;;;;;;;25.43;69.59;94020.88;5087563;28;20321;-45
2023/06/16 10:11:10;;;;;;;10.80;9.38;;;;;;;25.68;68.44;94031.59;5086145;28;20204;-44
2023/06/16 10:13:39;;;;;;;11.15;10.10;;;;;;;25.77;68.10;94014.44;5087379;28;20181;-46
2023/06/16 10:16:11;;;;;;;11.50;10.27;;;;;;;25.93;67.77;94027.69;5086568;28;20189;-47
2023/06/16 10:18:42;;;;;;;11.30;10.15;;;;;;;25.93;67.22;94025.06;5087318;28;20190;-46
2023/06/16 10:21:10;;;;;;;11.02;9.55;;;;;;;26.01;66.46;94017.53;5086041;28;20182;-46
2023/06/16 10:23:37;;;;;;;13.93;9.85;;;;;;;25.91;64.88;94009.59;5086477;28;20192;-46
2023/06/16 10:26:06;;;;;;;9.88;8.88;;;;;;;25.76;66.43;94019.91;5086823;28;20229;-45
2023/06/16 10:28:35;;;;;;;11.52;9.20;;;;;;;25.54;65.79;94006.88;5085312;28;20209;-45
2023/06/16 10:31:03;;;;;;;10.40;9.50;;;;;;;25.42;66.33;94012.25;5086702;28;20185;-47
2023/06/16 10:33:52;;;;;;;10.75;9.65;;;;;;;25.15;66.85;94008.81;5088378;28;20202;-45
2023/06/16 10:36:23;;;;;;;10.38;9.15;;;;;;;25.03;67.79;94001.06;5087612;28;20580;-45
2023/06/16 10:39:01;;;;;;;10.23;9.15;;;;;;;25.03;67.68;94001.06;5087960;28;20212;-46
2023/06/16 10:41:30;;;;;;;10.50;9.40;;;;;;;24.87;67.27;93999.28;5088719;28;20565;-44
2023/06/16 10:43:57;;;;;;;11.02;10.05;;;;;;;24.85;66.93;93990.91;5091048;28;20198;-45
2023/06/16 10:46:25;;;;;;;10.98;9.77;;;;;;;24.90;67.24;93989.13;5091633;28;20193;-45
2023/06/16 10:49:20;;;;;;;10.23;9.23;;;;;;;24.84;66.49;93984.88;5088586;28;20725;-45
2023/06/16 10:51:49;;;;;;;8.98;8.18;;;;;;;24.69;65.14;93971.59;5089188;28;20190;-44
2023/06/16 10:54:34;;;;;;;9.10;7.93;;;;;;;24.77;65.10;93979.81;5087598;28;20270;-45
2023/06/16 10:57:03;;;;;;;8.80;8.10;;;;;;;24.73;65.36;93973.50;5089086;28;20185;-46
2023/06/16 10:59:31;;;;;;;10.88;9.65;;;;;;;24.68;65.63;93978.66;5089070;28;20198;-46
2023/06/16 11:01:59;;;;;;;11.02;10.02;;;;;;;24.82;66.49;93973.06;5089263;28;20201;-44
2023/06/16 11:04:27;;;;;;;14.45;10.07;;;;;;;24.94;66.38;93964.06;5088805;28;20205;-46
2023/06/16 11:07:11;;;;;;;10.32;9.18;;;;;;;25.14;65.45;93971.38;5088172;28;20206;-47
2023/06/16 11:09:38;;;;;;;9.75;8.85;;;;;;;25.24;64.11;93966.25;5087270;28;20225;-46
2023/06/16 11:12:07;;;;;;;9.02;8.23;;;;;;;25.17;63.97;93962.25;5089096;28;20203;-46
2023/06/16 11:14:35;;;;;;;9.57;8.75;;;;;;;25.12;64.54;93964.81;5086988;28;20206;-46
2023/06/16 11:17:04;;;;;;;9.63;8.45;;;;;;;25.13;64.07;93964.59;5089252;28;20221;-46
2023/06/16 11:19:32;;;;;;;10.25;9.25;;;;;;;25.09;64.30;93954.84;5085342;28;20673;-46
2023/06/16 11:22:02;;;;;;;11.90;8.05;;;;;;;25.19;64.61;93962.81;5088728;28;20668;-46